Time;durP1;ratioP1;P1;durP2;ratioP2;P2;SDS_P1;SDS_P2;PMS_P1;PMS_P2;Temp;Humidity;BMP_temperature;BMP_pressure;BME280_temperature;BME280_humidity;BME280_pressure;Samples;Min_cycle;Max_cycle;Signal;HPM_P1;HPM_P2
2022/07/01 00:01:35;;;;;;;;;;;;;;;15.26;85.73;101488.69;5053213;28;19968;-36
2022/07/01 00:04:00;;;;;;;;;;;;;;;15.20;85.64;101517.75;5054038;28;20022;-36
2022/07/01 00:06:26;;;;;;;;;;;;;;;15.19;86.19;101526.19;5053493;28;19916;-36
2022/07/01 00:08:51;;;;;;;;;;;;;;;15.16;85.03;101522.03;5053144;28;19924;-36
2022/07/01 00:11:16;;;;;;;;;;;;;;;15.15;86.11;101525.84;5053316;28;20427;-37
2022/07/01 00:13:41;;;;;;;;;;;;;;;15.11;87.24;101524.66;5053326;28;20281;-36
2022/07/01 00:16:06;;;;;;;;;;;;;;;15.03;86.85;101511.47;5052903;28;20000;-36
2022/07/01 00:18:32;;;;;;;;;;;;;;;14.98;86.43;101497.72;5052790;28;19916;-36
2022/07/01 00:20:57;;;;;;;;;;;;;;;14.98;86.24;101502.34;5053045;28;19986;-37
2022/07/01 00:23:22;;;;;;;;;;;;;;;14.96;86.04;101499.06;5052709;28;19916;-37
2022/07/01 00:25:47;;;;;;;;;;;;;;;14.93;86.23;101505.81;5053043;28;19967;-36
2022/07/01 00:28:12;;;;;;;;;;;;;;;14.90;85.82;101500.88;5054988;28;19952;-36
2022/07/01 00:30:38;;;;;;;;;;;;;;;14.87;86.74;101506.78;5056967;28;19917;-36
2022/07/01 00:33:04;;;;;;;;;;;;;;;14.83;87.04;101502.91;5056940;28;19923;-36
2022/07/01 00:35:29;;;;;;;;;;;;;;;14.73;87.04;101505.41;5056453;28;20366;-36
2022/07/01 00:37:55;;;;;;;;;;;;;;;14.69;86.71;101502.38;5057054;28;19916;-36
2022/07/01 00:40:20;;;;;;;;;;;;;;;14.66;87.17;101490.06;5056677;28;19923;-36
2022/07/01 00:42:45;;;;;;;;;;;;;;;14.63;87.27;101487.81;5056708;28;19917;-36
2022/07/01 00:45:11;;;;;;;;;;;;;;;14.60;87.41;101488.31;5056510;28;19995;-36
2022/07/01 00:47:37;;;;;;;;;;;;;;;14.57;88.36;101496.13;5056906;28;20377;-36
2022/07/01 00:50:06;;;;;;;;;;;;;;;14.54;88.43;101485.72;5056767;28;19958;-36
2022/07/01 00:52:32;;;;;;;;;;;;;;;14.53;88.33;101492.25;5057279;28;19924;-37
2022/07/01 00:54:57;;;;;;;;;;;;;;;14.55;87.40;101490.94;5056262;28;19917;-37
2022/07/01 00:57:22;;;;;;;;;;;;;;;14.55;88.96;101493.66;5056169;28;20011;-36
2022/07/01 00:59:48;;;;;;;;;;;;;;;14.52;88.47;101499.56;5056580;28;20003;-36
2022/07/01 01:02:13;;;;;;;;;;;;;;;14.52;88.54;101502.28;5056563;28;20277;-36
2022/07/01 01:04:38;;;;;;;;;;;;;;;14.53;88.19;101495.78;5056786;28;19959;-36
2022/07/01 01:07:04;;;;;;;;;;;;;;;14.52;88.97;101494.13;5056413;28;20359;-36
2022/07/01 01:09:33;;;;;;;;;;;;;;;14.54;89.97;101500.19;5056412;28;20336;-36
2022/07/01 01:11:58;;;;;;;;;;;;;;;14.51;89.38;101511.53;5056653;28;19963;-36
2022/07/01 01:14:23;;;;;;;;;;;;;;;14.51;89.45;101519.69;5055860;28;19921;-36
2022/07/01 01:16:49;;;;;;;;;;;;;;;14.49;90.65;101521.81;5056573;28;19917;-36
2022/07/01 01:19:14;;;;;;;;;;;;;;;14.43;90.56;101522.75;5056005;28;20276;-36
2022/07/01 01:21:39;;;;;;;;;;;;;;;14.44;90.94;101529.84;5056473;28;20262;-36
2022/07/01 01:24:06;;;;;;;;;;;;;;;14.43;90.36;101545.34;5055609;28;19925;-36
2022/07/01 01:26:32;;;;;;;;;;;;;;;14.43;90.53;101549.97;5056382;28;19917;-36
2022/07/01 01:28:57;;;;;;;;;;;;;;;14.43;90.10;101550.78;5055831;28;20289;-36
2022/07/01 01:31:29;;;;;;;;;;;;;;;14.42;90.93;101559.19;5056357;28;20437;-36
2022/07/01 01:33:54;;;;;;;;;;;;;;;14.45;90.47;101552.47;5055726;28;19959;-36
2022/07/01 01:36:20;;;;;;;;;;;;;;;14.49;90.00;101559.09;5055404;28;19917;-36
2022/07/01 01:38:45;;;;;;;;;;;;;;;14.52;89.85;101537.69;5055278;28;19924;-36
2022/07/01 01:41:10;;;;;;;;;;;;;;;14.54;89.59;101546.44;5056108;28;19917;-36
2022/07/01 01:43:36;;;;;;;;;;;;;;;14.55;89.55;101539.94;5055762;28;20008;-36
2022/07/01 01:46:02;;;;;;;;;;;;;;;14.57;89.41;101537.78;5055156;28;19975;-36
2022/07/01 01:48:28;;;;;;;;;;;;;;;14.57;88.99;101540.50;5055622;28;19923;-36
2022/07/01 01:50:53;;;;;;;;;;;;;;;14.57;88.70;101551.38;5055583;28;20344;-36
2022/07/01 01:53:18;;;;;;;;;;;;;;;14.57;89.60;101540.50;5054026;28;20008;-36
2022/07/01 01:55:43;;;;;;;;;;;;;;;14.56;89.56;101541.56;5055017;28;19971;-36
2022/07/01 01:58:08;;;;;;;;;;;;;;;14.56;89.05;101547.03;5055497;28;20011;-36
2022/07/01 02:00:34;;;;;;;;;;;;;;;14.57;90.49;101539.69;5054996;28;20336;-37
2022/07/01 02:02:59;;;;;;;;;;;;;;;14.58;89.60;101535.88;5055457;28;19920;-36
2022/07/01 02:05:24;;;;;;;;;;;;;;;14.55;89.86;101537.22;5054808;28;19928;-36
2022/07/01 02:07:49;;;;;;;;;;;;;;;14.57;89.42;101545.13;5055560;28;19971;-36
2022/07/01 02:10:14;;;;;;;;;;;;;;;14.58;89.61;101544.03;5053589;28;19917;-36
2022/07/01 02:12:40;;;;;;;;;;;;;;;14.58;89.26;101557.66;5055418;28;19928;-36
2022/07/01 02:15:05;;;;;;;;;;;;;;;14.56;90.65;101566.06;5055006;28;20296;-36
2022/07/01 02:17:30;;;;;;;;;;;;;;;14.57;89.11;101569.63;5055398;28;19917;-36
2022/07/01 02:19:55;;;;;;;;;;;;;;;14.56;89.30;101570.69;5055047;28;19916;-36
2022/07/01 02:22:21;;;;;;;;;;;;;;;14.54;89.70;101573.66;5055353;28;20357;-36
2022/07/01 02:24:46;;;;;;;;;;;;;;;14.51;89.82;101578.75;5055187;28;19917;-36
2022/07/01 02:27:12;;;;;;;;;;;;;;;14.48;90.03;101588.19;5054983;28;20479;-36
2022/07/01 02:29:37;;;;;;;;;;;;;;;14.47;90.25;101594.69;5054558;28;19917;-36
2022/07/01 02:32:02;;;;;;;;;;;;;;;14.46;90.22;101598.47;5055163;28;20018;-36
2022/07/01 02:34:28;;;;;;;;;;;;;;;14.43;90.03;101594.31;5054470;28;20338;-36
2022/07/01 02:36:55;;;;;;;;;;;;;;;14.45;89.22;101575.06;5054766;28;19924;-36
2022/07/01 02:39:20;;;;;;;;;;;;;;;14.47;89.19;101556.59;5055069;28;19917;-36
2022/07/01 02:44:43;;;;;;;;;;;;;;;14.47;90.08;101547.59;5031949;28;19972;-36
2022/07/01 02:47:08;;;;;;;;;;;;;;;14.40;91.58;101559.44;5031741;28;19922;-36
2022/07/01 02:49:33;;;;;;;;;;;;;;;14.37;90.44;101551.75;5032425;28;19971;-36
2022/07/01 02:51:59;;;;;;;;;;;;;;;14.40;90.33;101558.63;5031179;28;19913;-36
2022/07/01 02:54:24;;;;;;;;;;;;;;;14.42;90.10;101568.19;5032123;28;19921;-36
2022/07/01 02:56:49;;;;;;;;;;;;;;;14.43;90.22;101566.28;5032141;28;19920;-36
2022/07/01 02:59:14;;;;;;;;;;;;;;;14.46;90.03;101570.44;5031806;28;20016;-36
2022/07/01 03:01:40;;;;;;;;;;;;;;;14.47;89.31;101578.34;5032234;28;19917;-36
2022/07/01 03:04:05;;;;;;;;;;;;;;;14.49;89.99;101576.25;5031674;28;19917;-36
2022/07/01 03:06:30;;;;;;;;;;;;;;;14.46;90.86;101574.00;5031913;28;19921;-36
2022/07/01 03:08:57;;;;;;;;;;;;;;;14.41;91.66;101573.88;5031617;28;19917;-36
2022/07/01 03:11:22;;;;;;;;;;;;;;;14.38;91.67;101575.16;5032124;28;20458;-36
2022/07/01 03:13:47;;;;;;;;;;;;;;;14.35;91.83;101581.09;5031599;28;20003;-36
2022/07/01 03:16:12;;;;;;;;;;;;;;;14.36;91.42;101582.75;5031794;28;20461;-36
2022/07/01 03:18:38;;;;;;;;;;;;;;;14.36;92.57;101588.19;5031400;28;19918;-36
2022/07/01 03:21:03;;;;;;;;;;;;;;;14.34;90.96;101594.94;5050175;28;20090;-36
2022/07/01 03:23:28;;;;;;;;;;;;;;;14.30;92.95;101591.03;5053303;28;20391;-36
2022/07/01 03:25:53;;;;;;;;;;;;;;;14.28;91.84;101585.00;5053587;28;19927;-36
2022/07/01 03:28:19;;;;;;;;;;;;;;;14.28;91.36;101574.94;5053148;28;19921;-36
2022/07/01 03:30:45;;;;;;;;;;;;;;;14.30;91.69;101577.41;5053418;28;20023;-36
2022/07/01 03:33:10;;;;;;;;;;;;;;;14.29;93.24;101579.31;5053627;28;19955;-36
2022/07/01 03:35:35;;;;;;;;;;;;;;;14.27;91.73;101580.63;5053234;28;20024;-36
2022/07/01 03:38:00;;;;;;;;;;;;;;;14.29;91.33;101586.66;5053669;28;20023;-36
2022/07/01 03:40:25;;;;;;;;;;;;;;;14.32;90.21;101591.63;5053601;28;19917;-36
2022/07/01 03:42:51;;;;;;;;;;;;;;;14.33;91.96;101604.16;5053543;28;20012;-36
2022/07/01 03:45:16;;;;;;;;;;;;;;;14.32;92.48;101607.94;5053658;28;20387;-36
2022/07/01 03:47:45;;;;;;;;;;;;;;;14.31;91.84;101604.41;5053328;28;20392;-36
2022/07/01 03:50:10;;;;;;;;;;;;;;;14.33;91.20;101604.16;5053473;28;19917;-36
2022/07/01 03:52:35;;;;;;;;;;;;;;;14.36;92.35;101617.31;5053509;28;20369;-36
2022/07/01 03:55:01;;;;;;;;;;;;;;;14.34;93.10;101622.13;5053250;28;19924;-36
2022/07/01 03:57:26;;;;;;;;;;;;;;;14.35;92.65;101624.63;5053787;28;19924;-37
2022/07/01 03:59:51;;;;;;;;;;;;;;;14.34;93.68;101633.84;5053248;28;19917;-36
2022/07/01 04:02:16;;;;;;;;;;;;;;;14.36;93.02;101636.34;5055152;28;19924;-36
2022/07/01 04:04:41;;;;;;;;;;;;;;;14.36;92.75;101647.22;5057628;28;20380;-37
2022/07/01 04:07:08;;;;;;;;;;;;;;;14.37;92.64;101643.44;5057053;28;19970;-36
2022/07/01 04:09:33;;;;;;;;;;;;;;;14.37;91.97;101644.25;5057162;28;19947;-36
2022/07/01 04:11:58;;;;;;;;;;;;;;;14.37;91.55;101640.72;5057274;28;19935;-36
2022/07/01 04:14:27;;;;;;;;;;;;;;;14.36;93.19;101645.34;5056815;28;19921;-36
2022/07/01 04:16:53;;;;;;;;;;;;;;;14.34;91.68;101644.72;5057554;28;19978;-36
2022/07/01 04:19:18;;;;;;;;;;;;;;;14.32;92.08;101649.59;5056111;28;19920;-36
2022/07/01 04:24:28;;;;;;;;;;;;;;;14.30;91.84;101648.16;5056994;28;20395;-36
2022/07/01 04:26:54;;;;;;;;;;;;;;;14.28;92.77;101644.84;5056857;28;19916;-37
2022/07/01 04:29:19;;;;;;;;;;;;;;;14.26;93.18;101647.81;5057630;28;19923;-41
2022/07/01 04:31:45;;;;;;;;;;;;;;;14.22;93.33;101634.91;5057165;28;19939;-36
2022/07/01 04:34:11;;;;;;;;;;;;;;;14.20;92.02;101634.31;5056742;28;19960;-36
2022/07/01 04:36:36;;;;;;;;;;;;;;;14.21;92.00;101638.72;5056671;28;19924;-36
2022/07/01 04:39:03;;;;;;;;;;;;;;;14.18;92.11;101642.72;5057198;28;19917;-36
2022/07/01 04:44:12;;;;;;;;;;;;;;;14.23;93.02;101652.91;5057196;28;19924;-36
2022/07/01 04:46:37;;;;;;;;;;;;;;;14.21;91.21;101655.84;5056080;28;20310;-36
2022/07/01 04:49:03;;;;;;;;;;;;;;;14.23;91.33;101663.78;5056462;28;20328;-36
2022/07/01 04:51:28;;;;;;;;;;;;;;;14.26;91.60;101671.47;5056678;28;19928;-36
2022/07/01 04:53:54;;;;;;;;;;;;;;;14.27;91.32;101659.53;5056071;28;20373;-36
2022/07/01 04:56:19;;;;;;;;;;;;;;;14.29;91.02;101654.66;5056945;28;19917;-36
2022/07/01 04:58:44;;;;;;;;;;;;;;;14.29;91.10;101654.66;5056361;28;19916;-36
2022/07/01 05:01:10;;;;;;;;;;;;;;;14.28;91.21;101655.72;5056278;28;20388;-36
2022/07/01 05:03:35;;;;;;;;;;;;;;;14.23;92.72;101653.72;5056178;28;19921;-36
2022/07/01 05:06:00;;;;;;;;;;;;;;;14.20;92.87;101658.78;5056818;28;20009;-36
2022/07/01 05:08:26;;;;;;;;;;;;;;;14.17;92.43;101652.78;5056642;28;20046;-36
2022/07/01 05:10:51;;;;;;;;;;;;;;;14.21;91.98;101655.03;5056865;28;19916;-37
2022/07/01 05:13:16;;;;;;;;;;;;;;;14.23;92.02;101652.91;5056261;28;19917;-36
2022/07/01 05:15:41;;;;;;;;;;;;;;;14.26;92.38;101657.88;5056568;28;19917;-36
2022/07/01 05:23:51;;;;;;;;;;;;;;;14.23;92.66;101656.44;5054090;28;20423;-36
2022/07/01 05:26:17;;;;;;;;;;;;;;;14.26;92.86;101658.69;5053728;28;20023;-37
2022/07/01 05:28:43;;;;;;;;;;;;;;;14.29;92.41;101658.22;5053936;28;19923;-36
2022/07/01 05:31:08;;;;;;;;;;;;;;;14.29;93.21;101655.50;5053653;28;19917;-36
2022/07/01 05:33:33;;;;;;;;;;;;;;;14.32;92.63;101651.47;5054278;28;19920;-36
2022/07/01 05:35:58;;;;;;;;;;;;;;;14.30;93.36;101653.59;5054178;28;19917;-36
2022/07/01 05:38:24;;;;;;;;;;;;;;;14.30;93.80;101653.59;5053600;28;20356;-36
2022/07/01 05:40:49;;;;;;;;;;;;;;;14.31;93.20;101658.00;5054233;28;19928;-36
2022/07/01 05:43:14;;;;;;;;;;;;;;;14.30;93.74;101643.56;5053368;28;19923;-36
2022/07/01 05:45:39;;;;;;;;;;;;;;;14.33;93.16;101642.25;5053346;28;20366;-36
2022/07/01 05:48:04;;;;;;;;;;;;;;;14.35;93.32;101649.13;5054131;28;19917;-36
2022/07/01 05:50:30;;;;;;;;;;;;;;;14.35;92.78;101651.84;5053327;28;19924;-37
2022/07/01 05:52:55;;;;;;;;;;;;;;;14.35;92.64;101654.56;5053526;28;20020;-37
2022/07/01 05:55:20;;;;;;;;;;;;;;;14.31;92.88;101660.72;5053247;28;19948;-36
2022/07/01 05:57:45;;;;;;;;;;;;;;;14.33;92.99;101653.97;5054618;28;19916;-36
2022/07/01 06:00:11;;;;;;;;;;;;;;;14.33;92.49;101664.84;5055980;28;19921;-37
2022/07/01 06:02:36;;;;;;;;;;;;;;;14.36;92.32;101663.56;5055804;28;20007;-37
2022/07/01 06:05:02;;;;;;;;;;;;;;;14.49;93.00;101663.31;5055067;28;19921;-36
2022/07/01 06:07:27;;;;;;;;;;;;;;;14.65;92.38;101659.09;5055574;28;20280;-37
2022/07/01 06:09:53;;;;;;;;;;;;;;;14.81;92.22;101655.63;5053957;28;19923;-36
2022/07/01 06:12:18;;;;;;;;;;;;;;;14.87;91.69;101654.66;5055693;28;19916;-37
2022/07/01 06:14:43;;;;;;;;;;;;;;;14.94;92.02;101651.81;5055097;28;19920;-36
2022/07/01 06:17:09;;;;;;;;;;;;;;;14.96;91.22;101655.13;5055035;28;19924;-36
2022/07/01 06:19:35;;;;;;;;;;;;;;;14.93;91.25;101655.59;5054719;28;19962;-37
2022/07/01 06:22:00;;;;;;;;;;;;;;;14.98;91.26;101650.25;5054798;28;19921;-37
2022/07/01 06:24:25;;;;;;;;;;;;;;;15.04;91.52;101654.75;5054912;28;19916;-36
2022/07/01 06:26:50;;;;;;;;;;;;;;;15.06;90.27;101651.78;5053561;28;19924;-36
2022/07/01 06:29:15;;;;;;;;;;;;;;;15.04;90.55;101651.19;5054668;28;19917;-36
2022/07/01 06:31:41;;;;;;;;;;;;;;;15.02;90.30;101639.69;5055049;28;19916;-36
2022/07/01 06:34:06;;;;;;;;;;;;;;;15.05;90.17;101645.50;5055215;28;19923;-36
2022/07/01 06:36:31;;;;;;;;;;;;;;;15.03;90.69;101641.34;5054962;28;19917;-36
2022/07/01 06:38:56;;;;;;;;;;;;;;;15.09;90.50;101648.56;5054724;28;20353;-36
2022/07/01 06:41:27;;;;;;;;;;;;;;;15.10;90.49;101642.88;5054806;28;19916;-36
2022/07/01 06:43:56;;;;;;;;;;;;;;;15.15;90.08;101640.25;5054747;28;19943;-36
2022/07/01 06:46:22;;;;;;;;;;;;;;;15.22;89.46;101640.09;5054568;28;20353;-37
2022/07/01 06:48:47;;;;;;;;;;;;;;;15.30;89.79;101647.06;5054395;28;19923;-36
2022/07/01 06:51:13;;;;;;;;;;;;;;;15.34;89.37;101643.63;5054391;28;19924;-36
2022/07/01 06:53:38;;;;;;;;;;;;;;;15.39;88.55;101646.44;5054810;28;19936;-36
2022/07/01 06:56:03;;;;;;;;;;;;;;;15.45;88.46;101634.56;5054175;28;20242;-36
2022/07/01 06:58:28;;;;;;;;;;;;;;;15.55;88.72;101647.56;5054227;28;19940;-36
2022/07/01 07:00:54;;;;;;;;;;;;;;;15.59;87.91;101651.44;5054522;28;20030;-36
2022/07/01 07:03:19;;;;;;;;;;;;;;;15.65;88.35;101649.66;5054415;28;19917;-36
2022/07/01 07:05:44;;;;;;;;;;;;;;;15.74;87.50;101661.84;5054119;28;20015;-36
2022/07/01 07:08:09;;;;;;;;;;;;;;;15.79;87.17;101659.19;5053927;28;20373;-36
2022/07/01 07:10:35;;;;;;;;;;;;;;;15.83;86.18;101665.00;5053723;28;20381;-37
2022/07/01 07:13:00;;;;;;;;;;;;;;;15.91;86.60;101665.41;5054328;28;19917;-36
2022/07/01 07:15:25;;;;;;;;;;;;;;;16.02;85.62;101671.88;5053716;28;20292;-36
2022/07/01 07:17:50;;;;;;;;;;;;;;;16.13;85.59;101683.78;5054153;28;19917;-36
2022/07/01 07:20:16;;;;;;;;;;;;;;;16.22;85.08;101694.03;5053897;28;19933;-36
2022/07/01 07:22:42;;;;;;;;;;;;;;;16.26;84.51;101694.38;5054201;28;19917;-37
2022/07/01 07:25:07;;;;;;;;;;;;;;;16.09;82.28;101688.91;5053846;28;19916;-37
2022/07/01 07:27:32;;;;;;;;;;;;;;;15.99;82.50;101688.72;5054315;28;19994;-36
2022/07/01 07:29:57;;;;;;;;;;;;;;;15.91;82.10;101689.16;5053833;28;20438;-36
2022/07/01 07:32:23;;;;;;;;;;;;;;;15.98;82.79;101686.25;5054672;28;19953;-36
2022/07/01 07:34:48;;;;;;;;;;;;;;;16.06;83.34;101683.13;5053493;28;20266;-36
2022/07/01 07:37:13;;;;;;;;;;;;;;;16.17;82.69;101691.22;5053830;28;19983;-36
2022/07/01 07:39:38;;;;;;;;;;;;;;;16.32;82.51;101695.28;5053758;28;19917;-36
2022/07/01 07:42:05;;;;;;;;;;;;;;;16.40;82.95;101698.41;5054141;28;20030;-36
2022/07/01 07:44:30;;;;;;;;;;;;;;;16.43;80.32;101700.63;5053179;28;19917;-36
2022/07/01 07:46:57;;;;;;;;;;;;;;;16.47;80.54;101700.97;5052612;28;20297;-36
2022/07/01 07:49:24;;;;;;;;;;;;;;;16.49;81.22;101704.25;5053617;28;19987;-36
2022/07/01 07:51:50;;;;;;;;;;;;;;;16.50;81.11;101705.94;5052766;28;20035;-36
2022/07/01 07:54:15;;;;;;;;;;;;;;;16.55;80.73;101714.22;5054312;28;20369;-36
2022/07/01 07:56:40;;;;;;;;;;;;;;;16.58;79.58;101707.41;5053557;28;19967;-36
2022/07/01 07:59:05;;;;;;;;;;;;;;;16.66;79.92;101704.25;5053869;28;20005;-37
2022/07/01 08:01:30;;;;;;;;;;;;;;;16.72;78.85;101716.94;5054083;28;19926;-36
2022/07/01 08:03:55;;;;;;;;;;;;;;;16.82;78.64;101717.09;5053489;28;19917;-37
2022/07/01 08:06:21;;;;;;;;;;;;;;;16.89;76.46;101719.66;5053375;28;19974;-37
2022/07/01 08:08:46;;;;;;;;;;;;;;;16.91;76.20;101722.94;5053060;28;19962;-36
2022/07/01 08:11:11;;;;;;;;;;;;;;;16.97;75.33;101713.75;5054071;28;19932;-37
2022/07/01 08:13:37;;;;;;;;;;;;;;;17.08;74.88;101718.28;5053525;28;19990;-36
2022/07/01 08:16:03;;;;;;;;;;;;;;;17.17;75.80;101716.72;5052997;28;19917;-37
2022/07/01 08:18:28;;;;;;;;;;;;;;;17.18;75.88;101723.88;5053163;28;19917;-37
2022/07/01 08:20:54;;;;;;;;;;;;;;;17.20;74.40;101727.16;5053435;28;19965;-37
2022/07/01 08:23:20;;;;;;;;;;;;;;;17.30;75.17;101726.47;5053934;28;20017;-36
2022/07/01 08:25:46;;;;;;;;;;;;;;;17.49;75.34;101726.97;5053283;28;19921;-37
2022/07/01 08:28:11;;;;;;;;;;;;;;;17.65;73.77;101731.53;5054071;28;19943;-37
2022/07/01 08:30:36;;;;;;;;;;;;;;;17.77;71.75;101734.16;5052977;28;19924;-37
2022/07/01 08:33:02;;;;;;;;;;;;;;;17.88;71.05;101737.81;5053446;28;19923;-36
2022/07/01 08:35:27;;;;;;;;;;;;;;;17.98;71.50;101732.44;5053040;28;19917;-37
2022/07/01 08:37:53;;;;;;;;;;;;;;;18.05;70.12;101738.53;5053213;28;19921;-37
2022/07/01 08:40:18;;;;;;;;;;;;;;;18.15;68.29;101740.53;5052845;28;20341;-37
2022/07/01 08:42:43;;;;;;;;;;;;;;;18.24;68.12;101742.53;5052883;28;19928;-36
2022/07/01 08:45:08;;;;;;;;;;;;;;;18.34;65.83;101750.00;5053559;28;19921;-36
2022/07/01 08:47:34;;;;;;;;;;;;;;;18.39;67.11;101746.50;5052701;28;19920;-37
2022/07/01 08:50:01;;;;;;;;;;;;;;;18.37;66.28;101745.94;5055834;28;19939;-37
2022/07/01 08:52:27;;;;;;;;;;;;;;;18.44;65.27;101758.31;5056874;28;19917;-37
2022/07/01 08:54:52;;;;;;;;;;;;;;;18.58;67.29;101761.44;5056583;28;20400;-37
2022/07/01 08:57:21;;;;;;;;;;;;;;;18.65;67.09;101759.31;5057158;28;19917;-37
2022/07/01 08:59:59;;;;;;;;;;;;;;;18.83;66.60;101768.22;5056582;28;19939;-36
2022/07/01 09:02:27;;;;;;;;;;;;;;;19.02;66.18;101763.94;5056600;28;19917;-36
2022/07/01 09:05:04;;;;;;;;;;;;;;;19.14;64.16;101770.06;5056875;28;19916;-37
2022/07/01 09:07:36;;;;;;;;;;;;;;;19.17;61.01;101763.22;5056543;28;19923;-37
2022/07/01 09:10:12;;;;;;;;;;;;;;;19.23;62.60;101757.50;5057038;28;19927;-37
2022/07/01 09:12:40;;;;;;;;;;;;;;;19.39;63.11;101755.66;5056778;28;20276;-37
2022/07/01 09:15:25;;;;;;;;;;;;;;;19.45;60.05;101762.81;5056386;28;20012;-36
2022/07/01 09:17:51;;;;;;;;;;;;;;;19.55;63.31;101762.00;5056684;28;19916;-37
2022/07/01 09:20:22;;;;;;;;;;;;;;;19.59;58.99;101754.91;5055984;28;20223;-37
2022/07/01 09:22:57;;;;;;;;;;;;;;;19.54;61.41;101758.44;5055634;28;20387;-37
2022/07/01 09:25:27;;;;;;;;;;;;;;;19.63;62.04;101756.03;5055792;28;19939;-37
2022/07/01 09:28:05;;;;;;;;;;;;;;;19.59;61.45;101759.56;5055537;28;19917;-36
2022/07/01 09:30:32;;;;;;;;;;;;;;;19.33;58.54;101762.22;5055807;28;19924;-36
2022/07/01 09:33:14;;;;;;;;;;;;;;;19.41;59.16;101758.94;5055813;28;19917;-36
2022/07/01 09:35:40;;;;;;;;;;;;;;;19.57;61.31;101759.84;5055745;28;19917;-37
2022/07/01 09:38:07;;;;;;;;;;;;;;;19.68;59.10;101763.47;5055756;28;19923;-37
2022/07/01 09:40:46;;;;;;;;;;;;;;;19.66;57.37;101768.38;5055725;28;19917;-37
2022/07/01 09:43:18;;;;;;;;;;;;;;;19.76;58.57;101780.25;5056025;28;19917;-36
2022/07/01 09:45:50;;;;;;;;;;;;;;;19.76;58.26;101763.78;5055687;28;20276;-37
2022/07/01 09:48:16;;;;;;;;;;;;;;;19.59;57.48;101774.09;5055675;28;19916;-37
2022/07/01 09:50:41;;;;;;;;;;;;;;;19.48;59.57;101775.16;5055425;28;19917;-37
2022/07/01 09:53:06;;;;;;;;;;;;;;;19.56;58.64;101763.66;5056216;28;19964;-37
2022/07/01 09:55:33;;;;;;;;;;;;;;;19.61;60.18;101779.34;5055507;28;20062;-37
2022/07/01 09:57:58;;;;;;;;;;;;;;;19.78;60.37;101774.47;5056149;28;19924;-37
2022/07/01 10:00:25;;;;;;;;;;;;;;;19.95;58.08;101772.31;5055010;28;20373;-37
2022/07/01 10:02:51;;;;;;;;;;;;;;;20.11;58.47;101772.34;5055333;28;19917;-37
2022/07/01 10:05:19;;;;;;;;;;;;;;;20.29;60.13;101774.56;5053829;28;19952;-36
2022/07/01 10:07:52;;;;;;;;;;;;;;;20.51;58.96;101777.06;5055145;28;19921;-37
2022/07/01 10:10:24;;;;;;;;;;;;;;;20.73;59.64;101785.84;5054005;28;20369;-37
2022/07/01 10:12:56;;;;;;;;;;;;;;;20.94;56.72;101788.59;5054996;28;19974;-37
2022/07/01 10:15:22;;;;;;;;;;;;;;;20.89;55.91;101788.59;5054700;28;19917;-36
2022/07/01 10:17:48;;;;;;;;;;;;;;;20.67;56.11;101799.88;5055016;28;19940;-37
2022/07/01 10:20:15;;;;;;;;;;;;;;;20.49;54.63;101799.31;5054576;28;20405;-37
2022/07/01 10:22:42;;;;;;;;;;;;;;;20.44;52.03;101791.03;5054623;28;19916;-37
2022/07/01 10:25:26;;;;;;;;;;;;;;;20.51;55.53;101797.13;5055212;28;20321;-37
2022/07/01 10:28:10;;;;;;;;;;;;;;;20.46;54.78;101815.50;5055058;28;20277;-36
2022/07/01 10:30:35;;;;;;;;;;;;;;;20.35;56.35;101813.84;5054613;28;19916;-37
2022/07/01 10:33:01;;;;;;;;;;;;;;;20.53;55.15;101808.66;5055212;28;19924;-37
2022/07/01 10:35:26;;;;;;;;;;;;;;;20.76;51.76;101810.03;5054315;28;19917;-37
2022/07/01 10:38:01;;;;;;;;;;;;;;;20.81;52.81;101814.72;5054363;28;20450;-37
2022/07/01 10:40:45;;;;;;;;;;;;;;;20.87;51.97;101816.34;5054448;28;19979;-37
2022/07/01 10:43:10;;;;;;;;;;;;;;;20.96;53.09;101803.69;5054724;28;19955;-37
2022/07/01 10:45:42;;;;;;;;;;;;;;;21.15;54.19;101809.44;5054458;28;19935;-37
2022/07/01 10:48:21;;;;;;;;;;;;;;;21.23;52.47;101806.13;5054593;28;19924;-37
2022/07/01 10:50:47;;;;;;;;;;;;;;;21.14;53.96;101804.22;5054026;28;19917;-37
2022/07/01 10:53:13;;;;;;;;;;;;;;;21.17;53.19;101814.63;5054188;28;20348;-37
2022/07/01 10:55:40;;;;;;;;;;;;;;;21.27;52.55;101803.59;5054535;28;19916;-37
2022/07/01 10:58:05;;;;;;;;;;;;;;;21.24;51.15;101804.19;5054789;28;19960;-37
2022/07/01 11:00:31;;;;;;;;;;;;;;;21.20;52.33;101801.16;5054231;28;19963;-37
2022/07/01 11:03:04;;;;;;;;;;;;;;;21.21;51.31;101811.06;5054147;28;19916;-37
2022/07/01 11:05:30;;;;;;;;;;;;;;;20.99;50.73;101807.81;5087343;28;19924;-37
2022/07/01 11:07:55;;;;;;;;;;;;;;;20.97;51.09;101810.81;5054111;28;19917;-37
2022/07/01 11:10:21;;;;;;;;;;;;;;;21.09;52.20;101805.06;5054032;28;19917;-37
2022/07/01 11:12:49;;;;;;;;;;;;;;;21.17;52.40;101803.63;5053421;28;19968;-37
2022/07/01 11:15:14;;;;;;;;;;;;;;;21.33;51.03;101797.03;5053902;28;20408;-37
2022/07/01 11:17:47;;;;;;;;;;;;;;;21.51;53.47;101787.31;5054166;28;19998;-37
2022/07/01 11:20:12;;;;;;;;;;;;;;;21.71;51.73;101786.41;5053518;28;20444;-37
2022/07/01 11:22:38;;;;;;;;;;;;;;;21.91;53.47;101783.56;5053779;28;19985;-37
2022/07/01 11:25:04;;;;;;;;;;;;;;;22.19;51.19;101781.19;5053710;28;20000;-37
2022/07/01 11:27:30;;;;;;;;;;;;;;;22.36;51.78;101784.38;5054171;28;19975;-37
2022/07/01 11:30:00;;;;;;;;;;;;;;;22.50;52.16;101779.03;5053902;28;19917;-37
2022/07/01 11:32:35;;;;;;;;;;;;;;;22.79;49.87;101777.13;5053970;28;20015;-37
2022/07/01 11:35:01;;;;;;;;;;;;;;;22.79;48.30;101774.34;5053734;28;19924;-37
2022/07/01 11:40:17;;;;;;;;;;;;;;;22.77;50.12;101775.75;5054219;28;19970;-37
2022/07/01 11:42:43;;;;;;;;;;;;;;;22.62;51.05;101766.50;5053928;28;19923;-37
2022/07/01 11:45:08;;;;;;;;;;;;;;;22.55;49.54;101770.72;5053866;28;19920;-37
2022/07/01 11:47:33;;;;;;;;;;;;;;;22.67;47.08;101773.91;5053190;28;19928;-37
2022/07/01 11:50:00;;;;;;;;;;;;;;;22.78;48.97;101775.44;5053544;28;19924;-37
2022/07/01 11:52:25;;;;;;;;;;;;;;;22.98;50.10;101770.88;5054236;28;19917;-37
2022/07/01 11:54:52;;;;;;;;;;;;;;;23.06;48.34;101773.00;5053979;28;20254;-37
2022/07/01 11:57:22;;;;;;;;;;;;;;;23.17;47.45;101771.75;5053703;28;19917;-38
2022/07/01 11:59:48;;;;;;;;;;;;;;;23.33;48.17;101772.44;5053629;28;20373;-37
2022/07/01 12:02:14;;;;;;;;;;;;;;;23.24;45.58;101758.44;5053458;28;19924;-37
2022/07/01 12:04:40;;;;;;;;;;;;;;;22.89;46.76;101767.94;5053571;28;19960;-37
2022/07/01 12:07:05;;;;;;;;;;;;;;;22.55;47.80;101777.06;5053246;28;19967;-37
2022/07/01 12:09:31;;;;;;;;;;;;;;;22.56;47.87;101775.94;5053287;28;19916;-38
2022/07/01 12:11:56;;;;;;;;;;;;;;;22.75;48.23;101773.28;5053035;28;19917;-37
2022/07/01 12:14:25;;;;;;;;;;;;;;;22.98;47.42;101776.38;5053508;28;19917;-37
2022/07/01 12:16:54;;;;;;;;;;;;;;;23.05;47.23;101776.88;5054086;28;20003;-37
2022/07/01 12:19:20;;;;;;;;;;;;;;;22.97;45.08;101783.03;5052969;28;19917;-38
2022/07/01 12:21:57;;;;;;;;;;;;;;;22.96;45.38;101782.19;5053796;28;20069;-37
2022/07/01 12:24:23;;;;;;;;;;;;;;;23.02;45.96;101772.75;5056630;28;19921;-37
2022/07/01 12:26:58;;;;;;;;;;;;;;;23.20;47.20;101773.13;5063609;28;19916;-37
2022/07/01 12:29:24;;;;;;;;;;;;;;;23.46;47.50;101771.69;5076904;28;19917;-37
2022/07/01 12:31:59;;;;;;;;;;;;;;;23.69;45.88;101775.56;5076950;28;19917;-37
2022/07/01 12:34:36;;;;;;;;;;;;;;;23.73;42.06;101781.31;5077088;28;19927;-37
2022/07/01 12:37:02;;;;;;;;;;;;;;;23.75;44.85;101779.91;5077117;28;20281;-37
2022/07/01 12:39:28;;;;;;;;;;;;;;;23.74;44.60;101788.47;5076834;28;20016;-37
2022/07/01 12:41:53;;;;;;;;;;;;;;;23.72;42.83;101785.19;5076334;28;19923;-37
2022/07/01 12:44:23;;;;;;;;;;;;;;;23.65;44.81;101782.78;5076821;28;19923;-37
2022/07/01 12:46:48;;;;;;;;;;;;;;;23.69;45.29;101786.63;5076180;28;19924;-37
2022/07/01 12:49:23;;;;;;;;;;;;;;;23.70;44.32;101782.72;5076725;28;20266;-37